Time,TemperatureF,DewpointF,PressureIn,WindDirection,WindDirectionDegrees,WindSpeedMPH,WindSpeedGustMPH,Humidity,HourlyPrecipIn,Conditions,Clouds,dailyrainin,SoftwareType,DateUTC
2013-07-28 00:01:00,53.9,49.5,29.82,SW,223,0.0,0.0,85,0.00,,,0.00,LWC V1.12 B30,2013-07-28 04:01:00,
2013-07-28 00:03:00,53.8,49.4,29.82,SW,223,0.0,0.0,85,0.00,,,0.00,LWC V1.12 B30,2013-07-28 04:03:00,
2013-07-28 00:05:00,53.8,49.7,29.82,SW,223,0.0,1.0,86,0.00,,,0.00,LWC V1.12 B30,2013-07-28 04:05:00,
2013-07-28 00:07:00,53.6,49.5,29.82,SW,223,0.0,0.0,86,0.00,,,0.00,LWC V1.12 B30,2013-07-28 04:07:00,
2013-07-28 00:09:00,53.6,49.5,29.82,SW,223,0.0,0.0,86,0.00,,,0.00,LWC V1.12 B30,2013-07-28 04:09:00,
2013-07-28 00:15:00,53.6,49.8,29.82,SW,223,0.0,1.0,87,0.00,,,0.00,LWC V1.12 B30,2013-07-28 04:15:00,
2013-07-28 00:21:00,53.5,50.0,29.82,SW,223,0.0,0.0,88,0.00,,,0.00,LWC V1.12 B30,2013-07-28 04:21:00,
2013-07-28 00:27:00,53.6,50.1,29.82,SW,223,0.0,1.0,88,0.00,,,0.00,LWC V1.12 B30,2013-07-28 04:27:00,
2013-07-28 00:33:00,53.6,50.4,29.82,SW,223,0.0,1.0,89,0.00,,,0.00,LWC V1.12 B30,2013-07-28 04:33:00,
2013-07-28 00:39:00,53.6,50.1,29.82,SW,223,0.0,0.0,88,0.00,,,0.00,LWC V1.12 B30,2013-07-28 04:39:00,
2013-07-28 00:45:00,53.6,50.1,29.82,SW,223,0.0,0.0,88,0.00,,,0.00,LWC V1.12 B30,2013-07-28 04:45:00,
2013-07-28 00:51:00,53.6,50.4,29.82,SW,223,0.0,0.0,89,0.00,,,0.00,LWC V1.12 B30,2013-07-28 04:51:00,
2013-07-28 00:57:00,53.6,50.1,29.82,SW,223,0.0,0.0,88,0.00,,,0.00,LWC V1.12 B30,2013-07-28 04:57:00,
2013-07-28 01:03:00,53.5,50.0,29.82,SSW,196,0.0,0.0,88,0.00,,,0.00,LWC V1.12 B30,2013-07-28 05:03:00,
2013-07-28 01:09:00,53.5,50.0,29.82,SSW,196,0.0,0.0,88,0.00,,,0.00,LWC V1.12 B30,2013-07-28 05:09:00,
2013-07-28 01:15:00,53.5,50.0,29.82,SSW,196,0.0,0.0,88,0.00,,,0.00,LWC V1.12 B30,2013-07-28 05:15:00,
2013-07-28 01:21:00,53.5,50.0,29.82,SSW,196,0.0,1.0,88,0.00,,,0.00,LWC V1.12 B30,2013-07-28 05:21:00,
2013-07-28 01:27:00,53.3,50.1,29.82,SSW,196,0.0,0.0,89,0.00,,,0.00,LWC V1.12 B30,2013-07-28 05:27:00,
2013-07-28 01:33:00,53.2,50.0,29.82,SSW,196,0.0,0.0,89,0.00,,,0.00,LWC V1.12 B30,2013-07-28 05:33:00,
2013-07-28 01:39:00,53.1,49.9,29.82,SSW,196,0.0,0.0,89,0.00,,,0.00,LWC V1.12 B30,2013-07-28 05:39:00,
2013-07-28 01:45:00,53.1,50.2,29.82,SSW,196,0.0,2.0,90,0.00,,,0.00,LWC V1.12 B30,2013-07-28 05:45:00,
2013-07-28 01:51:00,52.9,50.0,29.81,SSW,196,0.0,0.0,90,0.00,,,0.00,LWC V1.12 B30,2013-07-28 05:51:00,
2013-07-28 01:57:00,52.6,49.8,29.81,SSW,196,0.0,0.0,90,0.00,,,0.00,LWC V1.12 B30,2013-07-28 05:57:00,
2013-07-28 02:03:00,52.5,49.7,29.81,SSW,196,0.0,0.0,90,0.00,,,0.00,LWC V1.12 B30,2013-07-28 06:03:00,
2013-07-28 02:09:00,52.2,49.4,29.81,SSW,196,0.0,0.0,90,0.00,,,0.00,LWC V1.12 B30,2013-07-28 06:09:00,
2013-07-28 02:15:00,52.0,49.5,29.81,SSW,196,0.0,0.0,91,0.00,,,0.00,LWC V1.12 B30,2013-07-28 06:15:00,
2013-07-28 02:21:00,51.9,49.4,29.81,SSW,196,0.0,0.0,91,0.00,,,0.00,LWC V1.12 B30,2013-07-28 06:21:00,
2013-07-28 02:27:00,51.7,49.5,29.81,SSW,196,0.0,0.0,92,0.00,,,0.00,LWC V1.12 B30,2013-07-28 06:27:00,
2013-07-28 02:33:00,51.6,49.4,29.81,SSW,196,0.0,0.0,92,0.00,,,0.00,LWC V1.12 B30,2013-07-28 06:33:00,
2013-07-28 02:39:00,51.4,49.2,29.80,SSW,196,0.0,0.0,92,0.00,,,0.00,LWC V1.12 B30,2013-07-28 06:39:00,
2013-07-28 02:45:00,51.3,49.1,29.81,SSW,196,0.0,0.0,92,0.00,,,0.00,LWC V1.12 B30,2013-07-28 06:45:00,
2013-07-28 02:51:00,51.0,49.0,29.81,SSW,196,0.0,0.0,93,0.00,,,0.00,LWC V1.12 B30,2013-07-28 06:51:00,
2013-07-28 02:57:00,51.0,49.0,29.81,SSW,196,0.0,0.0,93,0.00,,,0.00,LWC V1.12 B30,2013-07-28 06:57:00,
2013-07-28 03:03:00,51.0,49.3,29.81,SSW,196,0.0,0.0,94,0.00,,,0.00,LWC V1.12 B30,2013-07-28 07:03:00,
2013-07-28 03:09:00,51.1,49.4,29.80,SSW,196,0.0,0.0,94,0.00,,,0.00,LWC V1.12 B30,2013-07-28 07:09:00,
2013-07-28 03:15:00,51.1,49.4,29.81,SSW,196,0.0,0.0,94,0.00,,,0.00,LWC V1.12 B30,2013-07-28 07:15:00,
2013-07-28 03:21:00,51.0,49.3,29.81,SSW,196,0.0,1.0,94,0.00,,,0.00,LWC V1.12 B30,2013-07-28 07:21:00,
2013-07-28 03:27:00,51.0,49.3,29.81,SSW,196,0.0,0.0,94,0.00,,,0.00,LWC V1.12 B30,2013-07-28 07:27:00,
2013-07-28 03:33:00,51.0,49.3,29.81,SSW,196,0.0,0.0,94,0.00,,,0.00,LWC V1.12 B30,2013-07-28 07:33:00,
2013-07-28 03:39:00,51.0,49.3,29.81,SSW,196,0.0,0.0,94,0.00,,,0.00,LWC V1.12 B30,2013-07-28 07:39:00,
2013-07-28 03:45:00,50.8,49.1,29.81,SSW,196,0.0,0.0,94,0.00,,,0.00,LWC V1.12 B30,2013-07-28 07:45:00,
2013-07-28 03:51:00,50.8,49.1,29.81,SSW,196,0.0,0.0,94,0.00,,,0.00,LWC V1.12 B30,2013-07-28 07:51:00,
2013-07-28 03:57:00,50.8,49.1,29.81,SSW,196,0.0,0.0,94,0.00,,,0.00,LWC V1.12 B30,2013-07-28 07:57:00,
2013-07-28 04:03:00,50.8,49.1,29.82,SSW,196,0.0,0.0,94,0.00,,,0.00,LWC V1.12 B30,2013-07-28 08:03:00,
2013-07-28 04:09:00,50.8,49.1,29.82,SSW,196,0.0,0.0,94,0.00,,,0.00,LWC V1.12 B30,2013-07-28 08:09:00,
2013-07-28 04:15:00,50.7,49.0,29.82,SSW,196,0.0,0.0,94,0.00,,,0.00,LWC V1.12 B30,2013-07-28 08:15:00,
2013-07-28 04:21:00,50.7,49.0,29.82,SSW,196,0.0,0.0,94,0.00,,,0.00,LWC V1.12 B30,2013-07-28 08:21:00,
2013-07-28 04:27:00,50.7,49.0,29.82,SSW,196,0.0,0.0,94,0.00,,,0.00,LWC V1.12 B30,2013-07-28 08:27:00,
2013-07-28 04:33:00,50.5,48.8,29.82,SSW,196,0.0,0.0,94,0.00,,,0.00,LWC V1.12 B30,2013-07-28 08:33:00,
2013-07-28 04:39:00,50.4,48.7,29.82,SSW,196,0.0,0.0,94,0.00,,,0.00,LWC V1.12 B30,2013-07-28 08:39:00,
2013-07-28 04:45:00,50.2,48.5,29.82,SSW,196,0.0,0.0,94,0.00,,,0.00,LWC V1.12 B30,2013-07-28 08:45:00,
2013-07-28 04:51:00,50.1,48.4,29.82,SSW,196,0.0,0.0,94,0.00,,,0.00,LWC V1.12 B30,2013-07-28 08:51:00,
2013-07-28 04:57:00,49.9,48.2,29.82,SSW,196,0.0,0.0,94,0.00,,,0.00,LWC V1.12 B30,2013-07-28 08:57:00,
2013-07-28 05:03:00,49.8,48.1,29.82,SSW,196,0.0,0.0,94,0.00,,,0.00,LWC V1.12 B30,2013-07-28 09:03:00,
2013-07-28 05:09:00,49.5,47.8,29.81,SSW,196,0.0,0.0,94,0.00,,,0.00,LWC V1.12 B30,2013-07-28 09:09:00,
2013-07-28 05:15:00,49.5,48.1,29.82,SSW,196,0.0,0.0,95,0.00,,,0.00,LWC V1.12 B30,2013-07-28 09:15:00,
2013-07-28 05:21:00,49.6,48.2,29.82,SSW,196,0.0,0.0,95,0.00,,,0.00,LWC V1.12 B30,2013-07-28 09:21:00,
2013-07-28 05:27:00,49.6,48.2,29.82,SSW,196,0.0,0.0,95,0.00,,,0.00,LWC V1.12 B30,2013-07-28 09:27:00,
2013-07-28 05:33:00,49.8,48.4,29.82,SSW,196,0.0,0.0,95,0.00,,,0.00,LWC V1.12 B30,2013-07-28 09:33:00,
2013-07-28 05:39:00,49.9,48.5,29.82,SSW,196,0.0,1.0,95,0.00,,,0.00,LWC V1.12 B30,2013-07-28 09:39:00,
2013-07-28 05:45:00,50.4,49.0,29.82,SSW,196,0.0,1.0,95,0.00,,,0.00,LWC V1.12 B30,2013-07-28 09:45:00,
2013-07-28 05:51:00,50.5,49.1,29.82,SSW,196,0.0,0.0,95,0.00,,,0.00,LWC V1.12 B30,2013-07-28 09:51:00,
2013-07-28 05:57:00,50.7,49.3,29.82,SSW,196,0.0,0.0,95,0.00,,,0.00,LWC V1.12 B30,2013-07-28 09:57:00,
2013-07-28 06:03:00,50.8,49.4,29.82,SSW,196,0.0,0.0,95,0.00,,,0.00,LWC V1.12 B30,2013-07-28 10:03:00,
2013-07-28 06:09:00,50.8,49.4,29.82,SSW,196,0.0,0.0,95,0.00,,,0.00,LWC V1.12 B30,2013-07-28 10:09:00,
2013-07-28 06:15:00,51.0,49.6,29.82,SSW,196,0.0,1.0,95,0.00,,,0.00,LWC V1.12 B30,2013-07-28 10:15:00,
2013-07-28 06:21:00,51.0,49.6,29.82,SSW,196,0.0,0.0,95,0.00,,,0.00,LWC V1.12 B30,2013-07-28 10:21:00,
2013-07-28 06:27:00,51.1,49.7,29.82,SSW,196,0.0,0.0,95,0.00,,,0.00,LWC V1.12 B30,2013-07-28 10:27:00,
2013-07-28 06:33:00,51.1,49.7,29.82,SSW,196,0.0,0.0,95,0.00,,,0.00,LWC V1.12 B30,2013-07-28 10:33:00,
2013-07-28 06:39:00,51.3,49.9,29.82,SSW,196,0.0,1.0,95,0.00,,,0.00,LWC V1.12 B30,2013-07-28 10:39:00,
2013-07-28 06:45:00,51.3,49.9,29.82,SSW,196,0.0,0.0,95,0.00,,,0.00,LWC V1.12 B30,2013-07-28 10:45:00,
2013-07-28 06:51:00,51.4,50.0,29.82,SSW,196,0.0,1.0,95,0.00,,,0.00,LWC V1.12 B30,2013-07-28 10:51:00,
2013-07-28 06:57:00,51.6,50.2,29.83,SSW,196,0.0,1.0,95,0.00,,,0.00,LWC V1.12 B30,2013-07-28 10:57:00,
2013-07-28 07:03:00,51.7,50.3,29.83,South,188,0.0,2.0,95,0.00,,,0.00,LWC V1.12 B30,2013-07-28 11:03:00,
2013-07-28 07:09:00,51.9,50.5,29.83,SSW,194,0.0,2.0,95,0.00,,,0.00,LWC V1.12 B30,2013-07-28 11:09:00,
2013-07-28 07:15:00,52.0,50.6,29.83,SSW,197,0.0,1.0,95,0.00,,,0.00,LWC V1.12 B30,2013-07-28 11:15:00,
2013-07-28 07:21:00,52.2,50.5,29.84,SSW,193,0.0,3.0,94,0.00,,,0.00,LWC V1.12 B30,2013-07-28 11:21:00,
2013-07-28 07:27:00,52.2,50.5,29.84,SSW,196,2.0,3.0,94,0.00,,,0.00,LWC V1.12 B30,2013-07-28 11:27:00,
2013-07-28 07:33:00,52.2,50.5,29.84,SSW,196,2.0,2.0,94,0.00,,,0.00,LWC V1.12 B30,2013-07-28 11:33:00,
2013-07-28 07:39:00,52.3,50.6,29.84,SSW,200,0.0,1.0,94,0.00,,,0.00,LWC V1.12 B30,2013-07-28 11:39:00,
2013-07-28 07:45:00,52.3,50.3,29.84,South,189,3.0,3.0,93,0.00,,,0.00,LWC V1.12 B30,2013-07-28 11:45:00,
2013-07-28 07:51:00,52.3,50.3,29.84,SSW,202,0.0,3.0,93,0.00,,,0.00,LWC V1.12 B30,2013-07-28 11:51:00,
2013-07-28 07:57:00,52.3,50.0,29.84,SSW,211,0.0,1.0,92,0.00,,,0.00,LWC V1.12 B30,2013-07-28 11:57:00,
2013-07-28 08:03:00,52.5,50.2,29.84,SSW,194,1.0,8.0,92,0.00,,,0.00,LWC V1.12 B30,2013-07-28 12:03:00,
2013-07-28 08:09:00,52.9,50.6,29.84,SSW,194,0.0,5.0,92,0.00,,,0.00,LWC V1.12 B30,2013-07-28 12:09:00,
2013-07-28 08:15:00,53.3,50.4,29.85,SSW,194,1.0,5.0,90,0.00,,,0.00,LWC V1.12 B30,2013-07-28 12:15:00,
2013-07-28 08:21:00,53.5,50.3,29.84,SSW,208,0.0,4.0,89,0.00,,,0.00,LWC V1.12 B30,2013-07-28 12:21:00,
2013-07-28 08:27:00,53.9,50.7,29.85,South,184,1.0,4.0,89,0.00,,,0.00,LWC V1.12 B30,2013-07-28 12:27:00,
2013-07-28 08:33:00,54.2,50.7,29.85,SSW,192,1.0,6.0,88,0.00,,,0.00,LWC V1.12 B30,2013-07-28 12:33:00,
2013-07-28 08:39:00,54.5,51.0,29.85,SSW,208,1.0,2.0,88,0.00,,,0.00,LWC V1.12 B30,2013-07-28 12:39:00,
2013-07-28 08:45:00,54.8,50.7,29.85,SSE,167,2.0,6.0,86,0.00,,,0.00,LWC V1.12 B30,2013-07-28 12:45:00,
2013-07-28 08:51:00,55.1,50.7,29.85,SSW,198,1.0,2.0,85,0.00,,,0.00,LWC V1.12 B30,2013-07-28 12:51:00,
2013-07-28 08:57:00,55.4,51.0,29.85,WSW,238,0.0,3.0,85,0.00,,,0.00,LWC V1.12 B30,2013-07-28 12:57:00,
2013-07-28 09:03:00,55.6,50.8,29.85,SSW,196,1.0,2.0,84,0.00,,,0.00,LWC V1.12 B30,2013-07-28 13:03:00,
2013-07-28 09:09:00,55.7,50.6,29.85,SSW,204,1.0,5.0,83,0.00,,,0.00,LWC V1.12 B30,2013-07-28 13:09:00,
2013-07-28 09:15:00,55.9,50.8,29.85,South,178,0.0,1.0,83,0.00,,,0.00,LWC V1.12 B30,2013-07-28 13:15:00,
2013-07-28 09:21:00,56.2,51.1,29.85,SW,226,0.0,1.0,83,0.00,,,0.00,LWC V1.12 B30,2013-07-28 13:21:00,
2013-07-28 09:27:00,56.3,50.9,29.85,SW,214,2.0,4.0,82,0.00,,,0.00,LWC V1.12 B30,2013-07-28 13:27:00,
2013-07-28 09:33:00,56.6,51.2,29.85,SSW,196,1.0,1.0,82,0.00,,,0.00,LWC V1.12 B30,2013-07-28 13:33:00,
2013-07-28 09:39:00,56.7,50.9,29.85,SSW,208,0.0,2.0,81,0.00,,,0.00,LWC V1.12 B30,2013-07-28 13:39:00,
2013-07-28 09:45:00,56.9,50.8,29.85,WSW,240,3.0,4.0,80,0.00,,,0.00,LWC V1.12 B30,2013-07-28 13:45:00,
2013-07-28 09:51:00,56.7,49.9,29.85,SW,217,0.0,3.0,78,0.00,,,0.00,LWC V1.12 B30,2013-07-28 13:51:00,
2013-07-28 09:57:00,57.0,50.2,29.85,SSW,201,0.0,4.0,78,0.00,,,0.00,LWC V1.12 B30,2013-07-28 13:57:00,
2013-07-28 10:03:00,57.3,50.5,29.85,SSW,208,2.0,4.0,78,0.00,,,0.00,LWC V1.12 B30,2013-07-28 14:03:00,
2013-07-28 10:09:00,57.5,50.3,29.85,West,273,2.0,4.0,77,0.00,,,0.00,LWC V1.12 B30,2013-07-28 14:09:00,
2013-07-28 10:15:00,57.6,50.4,29.85,SW,218,1.0,4.0,77,0.00,,,0.00,LWC V1.12 B30,2013-07-28 14:15:00,
2013-07-28 10:21:00,57.8,50.3,29.85,SSW,196,1.0,5.0,76,0.00,,,0.00,LWC V1.12 B30,2013-07-28 14:21:00,
2013-07-28 10:27:00,58.1,50.9,29.85,WSW,246,1.0,1.0,77,0.00,,,0.00,LWC V1.12 B30,2013-07-28 14:27:00,
2013-07-28 10:33:00,58.3,50.8,29.85,SW,236,0.0,1.0,76,0.00,,,0.00,LWC V1.12 B30,2013-07-28 14:33:00,
2013-07-28 10:39:00,58.3,50.0,29.85,SSW,194,2.0,3.0,74,0.00,,,0.00,LWC V1.12 B30,2013-07-28 14:39:00,
2013-07-28 10:45:00,58.4,50.5,29.85,SSW,194,1.0,3.0,75,0.00,,,0.00,LWC V1.12 B30,2013-07-28 14:45:00,
2013-07-28 10:51:00,58.6,51.1,29.85,SSW,198,0.0,1.0,76,0.00,,,0.00,LWC V1.12 B30,2013-07-28 14:51:00,
2013-07-28 10:57:00,58.6,51.1,29.85,SSW,204,0.0,1.0,76,0.00,,,0.00,LWC V1.12 B30,2013-07-28 14:57:00,
2013-07-28 11:03:00,58.6,51.1,29.85,WSW,252,3.0,4.0,76,0.00,,,0.00,LWC V1.12 B30,2013-07-28 15:03:00,
2013-07-28 11:09:00,58.6,50.3,29.85,SW,220,2.0,5.0,74,0.00,,,0.00,LWC V1.12 B30,2013-07-28 15:09:00,
2013-07-28 11:15:00,58.9,49.5,29.85,WSW,239,3.0,8.0,71,0.00,,,0.00,LWC V1.12 B30,2013-07-28 15:15:00,
2013-07-28 11:21:00,58.9,49.1,29.85,WSW,250,3.0,6.0,70,0.00,,,0.00,LWC V1.12 B30,2013-07-28 15:21:00,
2013-07-28 11:27:00,58.9,49.5,29.85,South,189,0.0,2.0,71,0.00,,,0.00,LWC V1.12 B30,2013-07-28 15:27:00,
2013-07-28 11:33:00,59.0,50.0,29.85,SW,234,4.0,4.0,72,0.00,,,0.00,LWC V1.12 B30,2013-07-28 15:33:00,
2013-07-28 11:39:00,59.0,49.6,29.85,SW,235,3.0,5.0,71,0.00,,,0.00,LWC V1.12 B30,2013-07-28 15:39:00,
2013-07-28 11:45:00,59.2,49.8,29.85,WSW,242,2.0,2.0,71,0.00,,,0.00,LWC V1.12 B30,2013-07-28 15:45:00,
2013-07-28 11:51:00,59.5,50.1,29.85,SSW,213,2.0,2.0,71,0.00,,,0.00,LWC V1.12 B30,2013-07-28 15:51:00,
2013-07-28 11:57:00,59.9,50.1,29.85,SW,234,2.0,4.0,70,0.00,,,0.00,LWC V1.12 B30,2013-07-28 15:57:00,
2013-07-28 12:03:00,59.9,49.7,29.86,West,265,4.0,7.0,69,0.00,,,0.00,LWC V1.12 B30,2013-07-28 16:03:00,
2013-07-28 12:09:00,60.1,49.5,29.85,WSW,243,2.0,3.0,68,0.00,,,0.00,LWC V1.12 B30,2013-07-28 16:09:00,
2013-07-28 12:15:00,60.2,50.4,29.85,SW,219,4.0,5.0,70,0.00,,,0.00,LWC V1.12 B30,2013-07-28 16:15:00,
2013-07-28 12:21:00,59.9,49.7,29.85,South,184,2.0,4.0,69,0.00,,,0.00,LWC V1.12 B30,2013-07-28 16:21:00,
2013-07-28 12:27:00,60.2,50.0,29.85,SSW,203,2.0,3.0,69,0.00,,,0.00,LWC V1.12 B30,2013-07-28 16:27:00,
2013-07-28 12:33:00,60.4,49.8,29.85,SW,219,2.0,3.0,68,0.00,,,0.00,LWC V1.12 B30,2013-07-28 16:33:00,
2013-07-28 12:39:00,60.5,50.3,29.85,WSW,246,2.0,3.0,69,0.00,,,0.00,LWC V1.12 B30,2013-07-28 16:39:00,
2013-07-28 12:45:00,61.3,50.2,29.85,West,274,2.0,6.0,67,0.00,,,0.00,LWC V1.12 B30,2013-07-28 16:45:00,
2013-07-28 12:51:00,61.3,49.4,29.85,WSW,240,5.0,7.0,65,0.00,,,0.00,LWC V1.12 B30,2013-07-28 16:51:00,
2013-07-28 12:57:00,60.9,49.1,29.85,WSW,254,2.0,8.0,65,0.00,,,0.00,LWC V1.12 B30,2013-07-28 16:57:00,
2013-07-28 13:03:00,60.7,49.3,29.85,SW,223,3.0,4.0,66,0.00,,,0.00,LWC V1.12 B30,2013-07-28 17:03:00,
2013-07-28 13:09:00,61.0,50.0,29.85,WSW,237,2.0,3.0,67,0.00,,,0.00,LWC V1.12 B30,2013-07-28 17:09:00,
2013-07-28 13:15:00,61.3,48.6,29.85,SSW,205,3.0,6.0,63,0.00,,,0.00,LWC V1.12 B30,2013-07-28 17:15:00,
2013-07-28 13:21:00,61.6,49.7,29.85,South,190,5.0,7.0,65,0.00,,,0.00,LWC V1.12 B30,2013-07-28 17:21:00,
2013-07-28 13:27:00,62.6,49.8,29.85,WSW,241,2.0,8.0,63,0.00,,,0.00,LWC V1.12 B30,2013-07-28 17:27:00,
2013-07-28 13:33:00,62.7,49.9,29.85,WNW,300,4.0,4.0,63,0.00,,,0.00,LWC V1.12 B30,2013-07-28 17:33:00,
2013-07-28 13:39:00,61.8,49.1,29.86,WSW,237,0.0,4.0,63,0.00,,,0.00,LWC V1.12 B30,2013-07-28 17:39:00,
2013-07-28 13:45:00,61.6,50.1,29.85,West,268,1.0,2.0,66,0.00,,,0.00,LWC V1.12 B30,2013-07-28 17:45:00,
2013-07-28 13:51:00,61.5,49.6,29.86,SW,233,1.0,5.0,65,0.00,,,0.00,LWC V1.12 B30,2013-07-28 17:51:00,
2013-07-28 13:57:00,61.3,49.8,29.86,WSW,257,3.0,5.0,66,0.00,,,0.00,LWC V1.12 B30,2013-07-28 17:57:00,
2013-07-28 14:03:00,62.1,50.6,29.86,SSW,211,2.0,4.0,66,0.00,,,0.00,LWC V1.12 B30,2013-07-28 18:03:00,
2013-07-28 14:09:00,62.0,50.9,29.85,SSW,211,2.0,3.0,67,0.00,,,0.00,LWC V1.12 B30,2013-07-28 18:09:00,
2013-07-28 14:15:00,61.8,49.9,29.85,SW,228,3.0,4.0,65,0.00,,,0.00,LWC V1.12 B30,2013-07-28 18:15:00,
2013-07-28 14:21:00,61.2,50.2,29.85,SSW,200,1.0,3.0,67,0.00,,,0.00,LWC V1.12 B30,2013-07-28 18:21:00,
2013-07-28 14:27:00,60.9,51.0,29.86,SSW,201,0.0,1.0,70,0.00,,,0.00,LWC V1.12 B30,2013-07-28 18:27:00,
2013-07-28 14:33:00,61.8,52.3,29.86,SSW,205,1.0,3.0,71,0.00,,,0.00,LWC V1.12 B30,2013-07-28 18:33:00,
2013-07-28 14:39:00,62.7,49.9,29.85,NW,317,1.0,4.0,63,0.00,,,0.00,LWC V1.12 B30,2013-07-28 18:39:00,
2013-07-28 14:45:00,63.2,50.4,29.85,West,265,2.0,6.0,63,0.00,,,0.00,LWC V1.12 B30,2013-07-28 18:45:00,
2013-07-28 14:51:00,63.4,50.1,29.86,WSW,239,1.0,5.0,62,0.00,,,0.00,LWC V1.12 B30,2013-07-28 18:51:00,
2013-07-28 14:57:00,62.9,49.2,29.85,West,259,2.0,6.0,61,0.00,,,0.00,LWC V1.12 B30,2013-07-28 18:57:00,
2013-07-28 15:03:00,62.6,49.8,29.86,South,187,3.0,3.0,63,0.00,,,0.00,LWC V1.12 B30,2013-07-28 19:03:00,
2013-07-28 15:09:00,62.6,50.7,29.85,WSW,240,3.0,3.0,65,0.00,,,0.00,LWC V1.12 B30,2013-07-28 19:09:00,
2013-07-28 15:15:00,62.6,49.4,29.86,West,273,4.0,7.0,62,0.00,,,0.00,LWC V1.12 B30,2013-07-28 19:15:00,
2013-07-28 15:21:00,62.4,50.9,29.86,SW,230,4.0,6.0,66,0.00,,,0.00,LWC V1.12 B30,2013-07-28 19:21:00,
2013-07-28 15:27:00,61.8,51.1,29.87,WSW,246,2.0,5.0,68,0.00,,,0.00,LWC V1.12 B30,2013-07-28 19:27:00,
2013-07-28 15:33:00,61.5,50.4,29.87,SW,227,1.0,7.0,67,0.00,,,0.00,LWC V1.12 B30,2013-07-28 19:33:00,
2013-07-28 15:39:00,61.6,50.5,29.87,West,271,2.0,5.0,67,0.00,,,0.00,LWC V1.12 B30,2013-07-28 19:39:00,
2013-07-28 15:45:00,61.6,49.7,29.87,SW,231,3.0,6.0,65,0.00,,,0.00,LWC V1.12 B30,2013-07-28 19:45:00,
2013-07-28 15:51:00,61.8,50.3,29.87,SW,216,2.0,4.0,66,0.00,,,0.00,LWC V1.12 B30,2013-07-28 19:51:00,
2013-07-28 15:57:00,61.8,50.3,29.87,SW,225,1.0,4.0,66,0.00,,,0.00,LWC V1.12 B30,2013-07-28 19:57:00,
2013-07-28 16:03:00,61.5,50.0,29.87,WSW,244,1.0,8.0,66,0.00,,,0.00,LWC V1.12 B30,2013-07-28 20:03:00,
2013-07-28 16:09:00,60.7,50.9,29.87,SW,232,0.0,3.0,70,0.00,,,0.00,LWC V1.12 B30,2013-07-28 20:09:00,
2013-07-28 16:15:00,60.5,51.4,29.87,WSW,246,4.0,5.0,72,0.00,,,0.00,LWC V1.12 B30,2013-07-28 20:15:00,
2013-07-28 16:21:00,60.2,50.4,29.88,WSW,253,2.0,3.0,70,0.00,,,0.01,LWC V1.12 B30,2013-07-28 20:21:00,
2013-07-28 16:27:00,60.1,48.3,29.88,SSW,206,2.0,6.0,65,0.00,,,0.01,LWC V1.12 B30,2013-07-28 20:27:00,
2013-07-28 16:33:00,59.9,48.9,29.88,SW,230,1.0,3.0,67,0.00,,,0.01,LWC V1.12 B30,2013-07-28 20:33:00,
2013-07-28 16:39:00,59.9,49.7,29.88,SW,217,2.0,3.0,69,0.00,,,0.01,LWC V1.12 B30,2013-07-28 20:39:00,
2013-07-28 16:45:00,60.2,50.4,29.88,SSW,193,0.0,2.0,70,0.00,,,0.01,LWC V1.12 B30,2013-07-28 20:45:00,
2013-07-28 16:51:00,60.5,51.0,29.88,SW,236,0.0,4.0,71,0.00,,,0.01,LWC V1.12 B30,2013-07-28 20:51:00,
2013-07-28 16:57:00,60.9,51.8,29.88,WSW,238,2.0,4.0,72,0.00,,,0.01,LWC V1.12 B30,2013-07-28 20:57:00,
2013-07-28 17:03:00,60.9,51.0,29.88,West,259,2.0,4.0,70,0.00,,,0.01,LWC V1.12 B30,2013-07-28 21:03:00,
2013-07-28 17:09:00,61.2,51.7,29.88,SW,220,4.0,4.0,71,0.00,,,0.01,LWC V1.12 B30,2013-07-28 21:09:00,
2013-07-28 17:15:00,61.3,51.0,29.89,WSW,248,3.0,5.0,69,0.00,,,0.01,LWC V1.12 B30,2013-07-28 21:15:00,
2013-07-28 17:21:00,61.3,51.4,29.89,SW,230,2.0,3.0,70,0.00,,,0.01,LWC V1.12 B30,2013-07-28 21:21:00,
2013-07-28 17:27:00,61.2,51.7,29.89,WSW,248,1.0,1.0,71,0.00,,,0.01,LWC V1.12 B30,2013-07-28 21:27:00,
2013-07-28 17:33:00,61.0,51.5,29.89,SW,215,3.0,3.0,71,0.00,,,0.01,LWC V1.12 B30,2013-07-28 21:33:00,
2013-07-28 17:39:00,61.2,52.1,29.89,SW,233,3.0,5.0,72,0.00,,,0.01,LWC V1.12 B30,2013-07-28 21:39:00,
2013-07-28 17:45:00,60.9,51.8,29.89,WSW,250,1.0,4.0,72,0.00,,,0.01,LWC V1.12 B30,2013-07-28 21:45:00,
2013-07-28 17:51:00,60.4,51.7,29.89,WSW,254,1.0,6.0,73,0.00,,,0.01,LWC V1.12 B30,2013-07-28 21:51:00,
2013-07-28 17:57:00,60.5,52.2,29.89,West,267,1.0,3.0,74,0.00,,,0.01,LWC V1.12 B30,2013-07-28 21:57:00,
2013-07-28 18:03:00,61.2,52.5,29.89,West,260,2.0,2.0,73,0.00,,,0.01,LWC V1.12 B30,2013-07-28 22:03:00,
2013-07-28 18:09:00,61.5,51.2,29.89,WSW,254,1.0,5.0,69,0.00,,,0.01,LWC V1.12 B30,2013-07-28 22:09:00,
2013-07-28 18:15:00,61.2,50.5,29.90,WSW,255,5.0,5.0,68,0.00,,,0.01,LWC V1.12 B30,2013-07-28 22:15:00,
2013-07-28 18:21:00,60.9,50.7,29.90,WSW,240,1.0,4.0,69,0.00,,,0.01,LWC V1.12 B30,2013-07-28 22:21:00,
2013-07-28 18:27:00,60.5,50.7,29.89,SW,225,2.0,4.0,70,0.00,,,0.01,LWC V1.12 B30,2013-07-28 22:27:00,
2013-07-28 18:33:00,60.5,51.0,29.90,WSW,244,2.0,4.0,71,0.00,,,0.01,LWC V1.12 B30,2013-07-28 22:33:00,
2013-07-28 18:39:00,60.5,51.8,29.90,West,261,3.0,4.0,73,0.00,,,0.01,LWC V1.12 B30,2013-07-28 22:39:00,
2013-07-28 18:45:00,60.1,50.7,29.90,SW,219,2.0,2.0,71,0.00,,,0.01,LWC V1.12 B30,2013-07-28 22:45:00,
2013-07-28 18:51:00,59.8,51.5,29.90,West,261,0.0,2.0,74,0.00,,,0.01,LWC V1.12 B30,2013-07-28 22:51:00,
2013-07-28 18:57:00,59.6,52.0,29.90,West,261,0.0,1.0,76,0.00,,,0.01,LWC V1.12 B30,2013-07-28 22:57:00,
2013-07-28 19:03:00,59.5,51.6,29.90,WSW,251,1.0,4.0,75,0.00,,,0.01,LWC V1.12 B30,2013-07-28 23:03:00,
2013-07-28 19:09:00,59.3,52.1,29.91,WSW,256,1.0,1.0,77,0.00,,,0.01,LWC V1.12 B30,2013-07-28 23:09:00,
2013-07-28 19:15:00,59.3,52.1,29.91,WSW,256,0.0,3.0,77,0.00,,,0.01,LWC V1.12 B30,2013-07-28 23:15:00,